sensor_id;sensor_type;location;lat;lon;timestamp;temperature;humidity
78708;SHT31;68037;51.978;5.650;2023-05-16T00:01:42;14.1;57.4
78708;SHT31;68037;51.978;5.650;2023-05-16T00:04:12;14.1;57.4
78708;SHT31;68037;51.978;5.650;2023-05-16T00:06:42;14.1;56.9
78708;SHT31;68037;51.978;5.650;2023-05-16T00:09:12;14.1;57.1
78708;SHT31;68037;51.978;5.650;2023-05-16T00:11:41;14.1;57.2
78708;SHT31;68037;51.978;5.650;2023-05-16T00:14:11;14.1;57.1
78708;SHT31;68037;51.978;5.650;2023-05-16T00:16:41;14.1;57.2
78708;SHT31;68037;51.978;5.650;2023-05-16T00:19:11;14.1;57.5
78708;SHT31;68037;51.978;5.650;2023-05-16T00:21:40;14.0;57.5
78708;SHT31;68037;51.978;5.650;2023-05-16T00:24:11;14.0;57.3
78708;SHT31;68037;51.978;5.650;2023-05-16T00:26:40;14.0;57.4
78708;SHT31;68037;51.978;5.650;2023-05-16T00:29:10;14.0;57.3
78708;SHT31;68037;51.978;5.650;2023-05-16T00:31:40;14.0;57.4
78708;SHT31;68037;51.978;5.650;2023-05-16T00:34:09;14.0;57.3
78708;SHT31;68037;51.978;5.650;2023-05-16T00:36:39;13.9;57.6
78708;SHT31;68037;51.978;5.650;2023-05-16T00:39:08;13.9;57.4
78708;SHT31;68037;51.978;5.650;2023-05-16T00:41:41;13.9;57.7
78708;SHT31;68037;51.978;5.650;2023-05-16T00:44:11;13.9;57.9
78708;SHT31;68037;51.978;5.650;2023-05-16T00:46:42;13.9;58.0
78708;SHT31;68037;51.978;5.650;2023-05-16T00:49:12;13.8;57.9
78708;SHT31;68037;51.978;5.650;2023-05-16T00:51:42;13.8;58.2
78708;SHT31;68037;51.978;5.650;2023-05-16T00:54:12;13.8;58.1
78708;SHT31;68037;51.978;5.650;2023-05-16T00:56:44;13.8;58.4
78708;SHT31;68037;51.978;5.650;2023-05-16T00:59:15;13.8;58.2
78708;SHT31;68037;51.978;5.650;2023-05-16T01:01:45;13.8;58.2
78708;SHT31;68037;51.978;5.650;2023-05-16T01:04:16;13.8;58.0
78708;SHT31;68037;51.978;5.650;2023-05-16T01:06:49;13.8;58.0
78708;SHT31;68037;51.978;5.650;2023-05-16T01:09:19;13.7;58.0
78708;SHT31;68037;51.978;5.650;2023-05-16T01:11:55;13.7;57.8
78708;SHT31;68037;51.978;5.650;2023-05-16T01:14:35;13.7;57.9
78708;SHT31;68037;51.978;5.650;2023-05-16T01:17:16;13.7;57.6
78708;SHT31;68037;51.978;5.650;2023-05-16T01:20:07;13.6;57.7
78708;SHT31;68037;51.978;5.650;2023-05-16T01:23:10;13.6;57.5
78708;SHT31;68037;51.978;5.650;2023-05-16T01:28:31;13.6;57.7
78708;SHT31;68037;51.978;5.650;2023-05-16T01:31:01;13.5;57.6
78708;SHT31;68037;51.978;5.650;2023-05-16T01:33:31;13.5;57.6
78708;SHT31;68037;51.978;5.650;2023-05-16T01:36:09;13.5;57.5
78708;SHT31;68037;51.978;5.650;2023-05-16T01:38:44;13.5;57.4
78708;SHT31;68037;51.978;5.650;2023-05-16T01:41:24;13.5;57.5
78708;SHT31;68037;51.978;5.650;2023-05-16T01:44:01;13.5;57.3
78708;SHT31;68037;51.978;5.650;2023-05-16T01:46:37;13.5;57.2
78708;SHT31;68037;51.978;5.650;2023-05-16T01:49:15;13.5;57.7
78708;SHT31;68037;51.978;5.650;2023-05-16T01:51:50;13.5;57.7
78708;SHT31;68037;51.978;5.650;2023-05-16T01:54:23;13.5;57.3
78708;SHT31;68037;51.978;5.650;2023-05-16T01:56:55;13.5;57.5
78708;SHT31;68037;51.978;5.650;2023-05-16T01:59:26;13.5;57.4
78708;SHT31;68037;51.978;5.650;2023-05-16T02:01:57;13.5;57.6
78708;SHT31;68037;51.978;5.650;2023-05-16T02:04:27;13.5;57.8
78708;SHT31;68037;51.978;5.650;2023-05-16T02:06:57;13.5;58.5
78708;SHT31;68037;51.978;5.650;2023-05-16T02:09:28;13.5;57.8
78708;SHT31;68037;51.978;5.650;2023-05-16T02:11:58;13.5;58.0
78708;SHT31;68037;51.978;5.650;2023-05-16T02:14:29;13.5;57.6
78708;SHT31;68037;51.978;5.650;2023-05-16T02:16:59;13.5;57.5
78708;SHT31;68037;51.978;5.650;2023-05-16T02:19:28;13.5;58.0
78708;SHT31;68037;51.978;5.650;2023-05-16T02:21:58;13.5;58.5
78708;SHT31;68037;51.978;5.650;2023-05-16T02:24:28;13.5;58.4
78708;SHT31;68037;51.978;5.650;2023-05-16T02:26:57;13.5;58.3
78708;SHT31;68037;51.978;5.650;2023-05-16T02:29:28;13.5;58.5
78708;SHT31;68037;51.978;5.650;2023-05-16T02:31:58;13.5;58.5
78708;SHT31;68037;51.978;5.650;2023-05-16T02:34:28;13.5;58.6
78708;SHT31;68037;51.978;5.650;2023-05-16T02:36:58;13.5;58.7
78708;SHT31;68037;51.978;5.650;2023-05-16T02:39:27;13.4;58.8
78708;SHT31;68037;51.978;5.650;2023-05-16T02:41:59;13.4;58.5
78708;SHT31;68037;51.978;5.650;2023-05-16T02:44:30;13.4;58.6
78708;SHT31;68037;51.978;5.650;2023-05-16T02:46:59;13.4;58.6
78708;SHT31;68037;51.978;5.650;2023-05-16T02:49:29;13.3;58.5
78708;SHT31;68037;51.978;5.650;2023-05-16T02:51:59;13.3;58.5
78708;SHT31;68037;51.978;5.650;2023-05-16T02:54:28;13.3;58.4
78708;SHT31;68037;51.978;5.650;2023-05-16T02:56:58;13.2;58.5
78708;SHT31;68037;51.978;5.650;2023-05-16T02:59:29;13.2;58.7
78708;SHT31;68037;51.978;5.650;2023-05-16T03:01:59;13.1;58.7
78708;SHT31;68037;51.978;5.650;2023-05-16T03:04:28;13.1;58.7
78708;SHT31;68037;51.978;5.650;2023-05-16T03:06:58;13.0;58.8
78708;SHT31;68037;51.978;5.650;2023-05-16T03:09:28;13.0;58.9
78708;SHT31;68037;51.978;5.650;2023-05-16T03:11:57;12.9;58.9
78708;SHT31;68037;51.978;5.650;2023-05-16T03:14:28;12.9;58.9
78708;SHT31;68037;51.978;5.650;2023-05-16T03:16:57;12.9;59.2
78708;SHT31;68037;51.978;5.650;2023-05-16T03:19:27;12.8;59.2
78708;SHT31;68037;51.978;5.650;2023-05-16T03:21:57;12.8;59.2
78708;SHT31;68037;51.978;5.650;2023-05-16T03:24:26;12.8;59.4
78708;SHT31;68037;51.978;5.650;2023-05-16T03:26:57;12.7;59.7
78708;SHT31;68037;51.978;5.650;2023-05-16T03:29:29;12.7;59.5
78708;SHT31;68037;51.978;5.650;2023-05-16T03:32:01;12.7;59.2
78708;SHT31;68037;51.978;5.650;2023-05-16T03:34:31;12.7;59.4
78708;SHT31;68037;51.978;5.650;2023-05-16T03:37:00;12.6;59.3
78708;SHT31;68037;51.978;5.650;2023-05-16T03:39:30;12.6;59.1
78708;SHT31;68037;51.978;5.650;2023-05-16T03:42:00;12.6;59.2
78708;SHT31;68037;51.978;5.650;2023-05-16T03:44:29;12.6;59.2
78708;SHT31;68037;51.978;5.650;2023-05-16T03:47:00;12.6;59.4
78708;SHT31;68037;51.978;5.650;2023-05-16T03:49:29;12.6;59.1
78708;SHT31;68037;51.978;5.650;2023-05-16T03:51:59;12.6;59.0
78708;SHT31;68037;51.978;5.650;2023-05-16T03:54:28;12.6;58.8
78708;SHT31;68037;51.978;5.650;2023-05-16T03:56:58;12.5;58.8
78708;SHT31;68037;51.978;5.650;2023-05-16T03:59:27;12.5;58.6
78708;SHT31;68037;51.978;5.650;2023-05-16T04:01:58;12.5;58.9
78708;SHT31;68037;51.978;5.650;2023-05-16T04:04:28;12.4;58.9
78708;SHT31;68037;51.978;5.650;2023-05-16T04:06:57;12.4;58.9
78708;SHT31;68037;51.978;5.650;2023-05-16T04:09:27;12.4;59.1
78708;SHT31;68037;51.978;5.650;2023-05-16T04:11:57;12.3;59.3
78708;SHT31;68037;51.978;5.650;2023-05-16T04:14:28;12.3;59.3
78708;SHT31;68037;51.978;5.650;2023-05-16T04:16:58;12.2;59.4
78708;SHT31;68037;51.978;5.650;2023-05-16T04:19:28;12.2;59.5
78708;SHT31;68037;51.978;5.650;2023-05-16T04:21:58;12.1;59.8
78708;SHT31;68037;51.978;5.650;2023-05-16T04:24:29;12.1;60.0
78708;SHT31;68037;51.978;5.650;2023-05-16T04:26:58;12.1;60.0
78708;SHT31;68037;51.978;5.650;2023-05-16T04:29:28;12.1;59.9
78708;SHT31;68037;51.978;5.650;2023-05-16T04:31:58;12.0;60.0
78708;SHT31;68037;51.978;5.650;2023-05-16T04:34:28;12.0;59.9
78708;SHT31;68037;51.978;5.650;2023-05-16T04:37:00;12.0;60.6
78708;SHT31;68037;51.978;5.650;2023-05-16T04:39:30;12.0;60.3
78708;SHT31;68037;51.978;5.650;2023-05-16T04:42:00;12.0;59.9
78708;SHT31;68037;51.978;5.650;2023-05-16T04:44:30;12.0;60.1
78708;SHT31;68037;51.978;5.650;2023-05-16T04:47:00;12.0;60.4
78708;SHT31;68037;51.978;5.650;2023-05-16T04:49:30;12.0;60.4
78708;SHT31;68037;51.978;5.650;2023-05-16T04:52:00;12.0;60.3
78708;SHT31;68037;51.978;5.650;2023-05-16T04:54:32;12.0;60.2
78708;SHT31;68037;51.978;5.650;2023-05-16T04:57:01;12.0;60.5
78708;SHT31;68037;51.978;5.650;2023-05-16T04:59:31;12.0;60.4
78708;SHT31;68037;51.978;5.650;2023-05-16T05:02:02;12.0;60.4
78708;SHT31;68037;51.978;5.650;2023-05-16T05:04:33;12.0;60.7
78708;SHT31;68037;51.978;5.650;2023-05-16T05:07:02;12.0;60.5
78708;SHT31;68037;51.978;5.650;2023-05-16T05:09:32;11.9;60.5
78708;SHT31;68037;51.978;5.650;2023-05-16T05:12:02;11.9;60.4
78708;SHT31;68037;51.978;5.650;2023-05-16T05:14:31;11.9;60.7
78708;SHT31;68037;51.978;5.650;2023-05-16T05:17:01;11.9;61.1
78708;SHT31;68037;51.978;5.650;2023-05-16T05:19:30;11.9;61.1
78708;SHT31;68037;51.978;5.650;2023-05-16T05:22:00;12.0;60.9
78708;SHT31;68037;51.978;5.650;2023-05-16T05:24:31;12.0;60.7
78708;SHT31;68037;51.978;5.650;2023-05-16T05:27:00;12.0;61.3
78708;SHT31;68037;51.978;5.650;2023-05-16T05:29:31;12.1;60.8
78708;SHT31;68037;51.978;5.650;2023-05-16T05:32:01;12.1;60.8
78708;SHT31;68037;51.978;5.650;2023-05-16T05:34:30;12.1;60.8
78708;SHT31;68037;51.978;5.650;2023-05-16T05:37:00;12.1;60.8
78708;SHT31;68037;51.978;5.650;2023-05-16T05:39:29;12.1;60.9
78708;SHT31;68037;51.978;5.650;2023-05-16T05:41:59;12.2;60.9
78708;SHT31;68037;51.978;5.650;2023-05-16T05:44:28;12.2;60.8
78708;SHT31;68037;51.978;5.650;2023-05-16T05:46:58;12.2;60.8
78708;SHT31;68037;51.978;5.650;2023-05-16T05:49:28;12.2;61.2
78708;SHT31;68037;51.978;5.650;2023-05-16T05:52:00;12.2;61.0
78708;SHT31;68037;51.978;5.650;2023-05-16T05:54:30;12.2;60.5
78708;SHT31;68037;51.978;5.650;2023-05-16T05:56:59;12.2;60.8
78708;SHT31;68037;51.978;5.650;2023-05-16T05:59:29;12.2;61.2
78708;SHT31;68037;51.978;5.650;2023-05-16T06:02:00;12.2;61.3
78708;SHT31;68037;51.978;5.650;2023-05-16T06:04:30;12.3;61.1
78708;SHT31;68037;51.978;5.650;2023-05-16T06:07:01;12.3;60.8
78708;SHT31;68037;51.978;5.650;2023-05-16T06:09:32;12.3;60.8
78708;SHT31;68037;51.978;5.650;2023-05-16T06:12:02;12.3;60.8
78708;SHT31;68037;51.978;5.650;2023-05-16T06:14:32;12.4;61.0
78708;SHT31;68037;51.978;5.650;2023-05-16T06:17:02;12.5;60.5
78708;SHT31;68037;51.978;5.650;2023-05-16T06:19:31;12.6;60.5
78708;SHT31;68037;51.978;5.650;2023-05-16T06:22:01;12.7;59.7
78708;SHT31;68037;51.978;5.650;2023-05-16T06:24:31;12.7;60.2
78708;SHT31;68037;51.978;5.650;2023-05-16T06:27:01;12.7;59.2
78708;SHT31;68037;51.978;5.650;2023-05-16T06:29:30;12.7;59.4
78708;SHT31;68037;51.978;5.650;2023-05-16T06:32:00;12.8;59.0
78708;SHT31;68037;51.978;5.650;2023-05-16T06:34:29;12.8;58.9
78708;SHT31;68037;51.978;5.650;2023-05-16T06:37:00;12.8;59.2
78708;SHT31;68037;51.978;5.650;2023-05-16T06:39:31;12.9;59.3
78708;SHT31;68037;51.978;5.650;2023-05-16T06:42:01;12.9;58.5
78708;SHT31;68037;51.978;5.650;2023-05-16T06:44:30;12.9;58.0
78708;SHT31;68037;51.978;5.650;2023-05-16T06:47:00;12.9;57.9
78708;SHT31;68037;51.978;5.650;2023-05-16T06:49:29;13.0;58.3
78708;SHT31;68037;51.978;5.650;2023-05-16T06:51:59;13.0;58.2
78708;SHT31;68037;51.978;5.650;2023-05-16T06:54:29;13.1;58.3
78708;SHT31;68037;51.978;5.650;2023-05-16T06:56:58;13.1;58.5
78708;SHT31;68037;51.978;5.650;2023-05-16T06:59:29;13.2;56.9
78708;SHT31;68037;51.978;5.650;2023-05-16T07:01:59;13.3;57.2
78708;SHT31;68037;51.978;5.650;2023-05-16T07:04:30;13.3;57.4
78708;SHT31;68037;51.978;5.650;2023-05-16T07:07:00;13.5;56.2
78708;SHT31;68037;51.978;5.650;2023-05-16T07:09:30;13.6;56.8
78708;SHT31;68037;51.978;5.650;2023-05-16T07:12:00;13.6;55.5
78708;SHT31;68037;51.978;5.650;2023-05-16T07:14:29;13.7;54.7
78708;SHT31;68037;51.978;5.650;2023-05-16T07:16:59;13.7;53.9
78708;SHT31;68037;51.978;5.650;2023-05-16T07:19:28;13.8;54.2
78708;SHT31;68037;51.978;5.650;2023-05-16T07:21:58;13.8;53.7
78708;SHT31;68037;51.978;5.650;2023-05-16T07:24:28;13.8;53.6
78708;SHT31;68037;51.978;5.650;2023-05-16T07:26:57;13.9;54.0
78708;SHT31;68037;51.978;5.650;2023-05-16T07:29:29;13.9;54.7
78708;SHT31;68037;51.978;5.650;2023-05-16T07:31:58;13.9;54.2
78708;SHT31;68037;51.978;5.650;2023-05-16T07:34:28;14.0;52.0
78708;SHT31;68037;51.978;5.650;2023-05-16T07:36:58;14.0;51.5
78708;SHT31;68037;51.978;5.650;2023-05-16T07:39:27;14.0;52.7
78708;SHT31;68037;51.978;5.650;2023-05-16T07:41:57;14.1;53.4
78708;SHT31;68037;51.978;5.650;2023-05-16T07:44:26;14.1;53.5
78708;SHT31;68037;51.978;5.650;2023-05-16T07:46:56;14.2;53.0
78708;SHT31;68037;51.978;5.650;2023-05-16T07:49:25;14.3;52.0
78708;SHT31;68037;51.978;5.650;2023-05-16T07:51:55;14.4;51.3
78708;SHT31;68037;51.978;5.650;2023-05-16T07:54:24;14.5;50.8
78708;SHT31;68037;51.978;5.650;2023-05-16T07:56:54;14.6;51.2
78708;SHT31;68037;51.978;5.650;2023-05-16T07:59:24;14.7;52.0
78708;SHT31;68037;51.978;5.650;2023-05-16T08:01:53;14.8;49.3
78708;SHT31;68037;51.978;5.650;2023-05-16T08:04:23;14.8;49.0
78708;SHT31;68037;51.978;5.650;2023-05-16T08:06:52;14.9;48.3
78708;SHT31;68037;51.978;5.650;2023-05-16T08:09:22;15.0;49.2
78708;SHT31;68037;51.978;5.650;2023-05-16T08:11:52;15.0;48.2
78708;SHT31;68037;51.978;5.650;2023-05-16T08:14:22;15.1;48.8
78708;SHT31;68037;51.978;5.650;2023-05-16T08:16:52;15.1;47.7
78708;SHT31;68037;51.978;5.650;2023-05-16T08:19:21;15.2;48.6
78708;SHT31;68037;51.978;5.650;2023-05-16T08:21:51;15.3;47.4
78708;SHT31;68037;51.978;5.650;2023-05-16T08:24:21;15.4;47.4
78708;SHT31;68037;51.978;5.650;2023-05-16T08:26:52;15.4;48.4
78708;SHT31;68037;51.978;5.650;2023-05-16T08:29:22;15.4;48.6
78708;SHT31;68037;51.978;5.650;2023-05-16T08:31:52;15.4;45.8
78708;SHT31;68037;51.978;5.650;2023-05-16T08:34:21;15.4;46.2
78708;SHT31;68037;51.978;5.650;2023-05-16T08:36:50;15.3;46.7
78708;SHT31;68037;51.978;5.650;2023-05-16T08:39:21;15.3;47.2
78708;SHT31;68037;51.978;5.650;2023-05-16T08:41:50;15.3;51.1
78708;SHT31;68037;51.978;5.650;2023-05-16T08:44:20;15.3;53.0
78708;SHT31;68037;51.978;5.650;2023-05-16T08:46:51;15.3;54.2
78708;SHT31;68037;51.978;5.650;2023-05-16T08:49:24;15.2;52.9
78708;SHT31;68037;51.978;5.650;2023-05-16T08:51:56;15.0;53.2
78708;SHT31;68037;51.978;5.650;2023-05-16T08:54:28;14.9;55.0
78708;SHT31;68037;51.978;5.650;2023-05-16T08:57:00;14.8;56.0
78708;SHT31;68037;51.978;5.650;2023-05-16T08:59:30;14.8;54.7
78708;SHT31;68037;51.978;5.650;2023-05-16T09:02:00;14.8;56.3
78708;SHT31;68037;51.978;5.650;2023-05-16T09:04:30;14.8;55.2
78708;SHT31;68037;51.978;5.650;2023-05-16T09:07:00;14.8;55.9
78708;SHT31;68037;51.978;5.650;2023-05-16T09:09:29;14.9;54.9
78708;SHT31;68037;51.978;5.650;2023-05-16T09:11:59;14.9;55.4
78708;SHT31;68037;51.978;5.650;2023-05-16T09:14:29;15.0;55.3
78708;SHT31;68037;51.978;5.650;2023-05-16T09:17:06;15.1;56.2
78708;SHT31;68037;51.978;5.650;2023-05-16T09:19:39;15.2;54.4
78708;SHT31;68037;51.978;5.650;2023-05-16T09:22:11;15.3;52.0
78708;SHT31;68037;51.978;5.650;2023-05-16T09:24:43;15.4;52.8
78708;SHT31;68037;51.978;5.650;2023-05-16T09:27:14;15.5;50.1
78708;SHT31;68037;51.978;5.650;2023-05-16T09:29:51;15.6;50.2
78708;SHT31;68037;51.978;5.650;2023-05-16T09:32:24;15.8;49.7
78708;SHT31;68037;51.978;5.650;2023-05-16T09:34:54;15.9;49.3
78708;SHT31;68037;51.978;5.650;2023-05-16T09:37:25;16.0;49.2
78708;SHT31;68037;51.978;5.650;2023-05-16T09:39:54;16.0;48.8
78708;SHT31;68037;51.978;5.650;2023-05-16T09:42:24;16.0;49.3
78708;SHT31;68037;51.978;5.650;2023-05-16T09:44:55;16.0;48.3
78708;SHT31;68037;51.978;5.650;2023-05-16T09:47:27;16.1;47.6
78708;SHT31;68037;51.978;5.650;2023-05-16T09:49:57;16.1;47.9
78708;SHT31;68037;51.978;5.650;2023-05-16T09:52:28;16.1;46.8
78708;SHT31;68037;51.978;5.650;2023-05-16T09:54:57;16.1;46.1
78708;SHT31;68037;51.978;5.650;2023-05-16T09:57:27;16.1;46.5
78708;SHT31;68037;51.978;5.650;2023-05-16T09:59:58;16.2;46.8
78708;SHT31;68037;51.978;5.650;2023-05-16T10:02:31;16.2;45.6
78708;SHT31;68037;51.978;5.650;2023-05-16T10:05:01;16.3;45.5
78708;SHT31;68037;51.978;5.650;2023-05-16T10:07:31;16.3;45.4
78708;SHT31;68037;51.978;5.650;2023-05-16T10:10:05;16.4;45.9
78708;SHT31;68037;51.978;5.650;2023-05-16T10:12:36;16.4;44.5
78708;SHT31;68037;51.978;5.650;2023-05-16T10:15:07;16.5;43.4
78708;SHT31;68037;51.978;5.650;2023-05-16T10:17:39;16.6;43.8
78708;SHT31;68037;51.978;5.650;2023-05-16T10:20:12;16.7;43.1
78708;SHT31;68037;51.978;5.650;2023-05-16T10:22:43;16.8;41.7
78708;SHT31;68037;51.978;5.650;2023-05-16T10:25:22;16.9;41.3
78708;SHT31;68037;51.978;5.650;2023-05-16T10:27:54;16.9;41.5
78708;SHT31;68037;51.978;5.650;2023-05-16T10:30:25;16.9;42.0
78708;SHT31;68037;51.978;5.650;2023-05-16T10:32:56;16.9;41.6
78708;SHT31;68037;51.978;5.650;2023-05-16T10:35:31;17.0;41.4
78708;SHT31;68037;51.978;5.650;2023-05-16T10:38:04;17.1;39.1
78708;SHT31;68037;51.978;5.650;2023-05-16T10:40:37;17.1;39.0
78708;SHT31;68037;51.978;5.650;2023-05-16T10:43:08;17.2;40.2
78708;SHT31;68037;51.978;5.650;2023-05-16T10:45:40;17.2;40.4
78708;SHT31;68037;51.978;5.650;2023-05-16T10:48:11;17.2;41.1
78708;SHT31;68037;51.978;5.650;2023-05-16T10:50:43;17.2;41.6
78708;SHT31;68037;51.978;5.650;2023-05-16T10:53:15;17.3;41.9
78708;SHT31;68037;51.978;5.650;2023-05-16T10:56:06;17.3;40.9
78708;SHT31;68037;51.978;5.650;2023-05-16T10:58:46;17.3;40.4
78708;SHT31;68037;51.978;5.650;2023-05-16T11:01:18;17.3;40.3
78708;SHT31;68037;51.978;5.650;2023-05-16T11:04:01;17.3;40.1
78708;SHT31;68037;51.978;5.650;2023-05-16T11:06:33;17.3;39.6
78708;SHT31;68037;51.978;5.650;2023-05-16T11:09:20;17.3;39.8
78708;SHT31;68037;51.978;5.650;2023-05-16T11:11:59;17.4;40.1
78708;SHT31;68037;51.978;5.650;2023-05-16T11:14:34;17.4;39.5
78708;SHT31;68037;51.978;5.650;2023-05-16T11:17:09;17.4;38.9
78708;SHT31;68037;51.978;5.650;2023-05-16T11:19:44;17.4;38.5
78708;SHT31;68037;51.978;5.650;2023-05-16T11:22:24;17.5;39.1
78708;SHT31;68037;51.978;5.650;2023-05-16T11:25:00;17.5;39.0
78708;SHT31;68037;51.978;5.650;2023-05-16T11:27:32;17.6;38.7
78708;SHT31;68037;51.978;5.650;2023-05-16T11:30:12;17.6;38.5
78708;SHT31;68037;51.978;5.650;2023-05-16T11:32:44;17.6;38.4
78708;SHT31;68037;51.978;5.650;2023-05-16T11:35:18;17.6;39.3
78708;SHT31;68037;51.978;5.650;2023-05-16T11:37:47;17.6;38.5
78708;SHT31;68037;51.978;5.650;2023-05-16T11:40:17;17.6;38.7
78708;SHT31;68037;51.978;5.650;2023-05-16T11:42:47;17.7;39.5
78708;SHT31;68037;51.978;5.650;2023-05-16T11:45:18;17.7;38.0
78708;SHT31;68037;51.978;5.650;2023-05-16T11:47:49;17.7;39.2
78708;SHT31;68037;51.978;5.650;2023-05-16T11:50:20;17.7;40.3
78708;SHT31;68037;51.978;5.650;2023-05-16T11:52:52;17.7;39.7
78708;SHT31;68037;51.978;5.650;2023-05-16T11:55:25;17.7;40.2
78708;SHT31;68037;51.978;5.650;2023-05-16T11:57:57;17.7;40.0
78708;SHT31;68037;51.978;5.650;2023-05-16T12:00:29;17.7;40.9
78708;SHT31;68037;51.978;5.650;2023-05-16T12:03:02;17.7;40.1
78708;SHT31;68037;51.978;5.650;2023-05-16T12:05:32;17.7;39.2
78708;SHT31;68037;51.978;5.650;2023-05-16T12:08:02;17.7;38.2
78708;SHT31;68037;51.978;5.650;2023-05-16T12:10:33;17.7;37.7
78708;SHT31;68037;51.978;5.650;2023-05-16T12:13:03;17.6;37.7
78708;SHT31;68037;51.978;5.650;2023-05-16T12:15:33;17.6;37.6
78708;SHT31;68037;51.978;5.650;2023-05-16T12:18:03;17.6;37.7
78708;SHT31;68037;51.978;5.650;2023-05-16T12:20:33;17.6;37.7
78708;SHT31;68037;51.978;5.650;2023-05-16T12:23:03;17.6;37.5
78708;SHT31;68037;51.978;5.650;2023-05-16T12:25:33;17.5;37.2
78708;SHT31;68037;51.978;5.650;2023-05-16T12:28:08;17.5;37.7
78708;SHT31;68037;51.978;5.650;2023-05-16T12:30:42;17.5;38.3
78708;SHT31;68037;51.978;5.650;2023-05-16T12:33:15;17.4;39.1
78708;SHT31;68037;51.978;5.650;2023-05-16T12:35:45;17.4;39.9
78708;SHT31;68037;51.978;5.650;2023-05-16T12:38:18;17.4;40.2
78708;SHT31;68037;51.978;5.650;2023-05-16T12:40:48;17.3;40.6
78708;SHT31;68037;51.978;5.650;2023-05-16T12:43:21;17.3;40.7
78708;SHT31;68037;51.978;5.650;2023-05-16T12:45:52;17.3;41.1
78708;SHT31;68037;51.978;5.650;2023-05-16T12:48:22;17.2;41.6
78708;SHT31;68037;51.978;5.650;2023-05-16T12:50:52;17.2;41.8
78708;SHT31;68037;51.978;5.650;2023-05-16T12:53:22;17.1;41.5
78708;SHT31;68037;51.978;5.650;2023-05-16T12:55:51;17.1;42.0
78708;SHT31;68037;51.978;5.650;2023-05-16T12:58:21;17.0;41.7
78708;SHT31;68037;51.978;5.650;2023-05-16T13:00:50;17.0;41.7
78708;SHT31;68037;51.978;5.650;2023-05-16T13:03:20;17.0;43.6
78708;SHT31;68037;51.978;5.650;2023-05-16T13:05:49;16.9;44.8
78708;SHT31;68037;51.978;5.650;2023-05-16T13:08:19;16.9;45.2
78708;SHT31;68037;51.978;5.650;2023-05-16T13:10:48;16.9;45.8
78708;SHT31;68037;51.978;5.650;2023-05-16T13:13:18;16.9;45.6
78708;SHT31;68037;51.978;5.650;2023-05-16T13:15:51;16.9;46.8
78708;SHT31;68037;51.978;5.650;2023-05-16T13:18:22;16.9;45.7
78708;SHT31;68037;51.978;5.650;2023-05-16T13:20:51;16.9;45.3
78708;SHT31;68037;51.978;5.650;2023-05-16T13:23:21;17.0;45.6
78708;SHT31;68037;51.978;5.650;2023-05-16T13:25:51;17.0;46.7
78708;SHT31;68037;51.978;5.650;2023-05-16T13:28:21;17.1;45.7
78708;SHT31;68037;51.978;5.650;2023-05-16T13:30:50;17.2;45.1
78708;SHT31;68037;51.978;5.650;2023-05-16T13:33:20;17.2;45.8
78708;SHT31;68037;51.978;5.650;2023-05-16T13:35:51;17.3;45.2
78708;SHT31;68037;51.978;5.650;2023-05-16T13:38:21;17.3;44.8
78708;SHT31;68037;51.978;5.650;2023-05-16T13:40:51;17.4;44.3
78708;SHT31;68037;51.978;5.650;2023-05-16T13:43:21;17.4;44.8
78708;SHT31;68037;51.978;5.650;2023-05-16T13:45:51;17.3;45.1
78708;SHT31;68037;51.978;5.650;2023-05-16T13:48:20;17.3;44.4
78708;SHT31;68037;51.978;5.650;2023-05-16T13:50:51;17.3;44.6
78708;SHT31;68037;51.978;5.650;2023-05-16T13:53:22;17.3;44.2
78708;SHT31;68037;51.978;5.650;2023-05-16T13:55:52;17.3;44.8
78708;SHT31;68037;51.978;5.650;2023-05-16T13:58:25;17.3;45.1
78708;SHT31;68037;51.978;5.650;2023-05-16T14:00:55;17.3;45.4
78708;SHT31;68037;51.978;5.650;2023-05-16T14:03:24;17.2;45.1
78708;SHT31;68037;51.978;5.650;2023-05-16T14:05:54;17.2;45.1
78708;SHT31;68037;51.978;5.650;2023-05-16T14:08:23;17.2;45.9
78708;SHT31;68037;51.978;5.650;2023-05-16T14:10:53;17.2;45.9
78708;SHT31;68037;51.978;5.650;2023-05-16T14:13:23;17.2;44.7
78708;SHT31;68037;51.978;5.650;2023-05-16T14:15:52;17.2;44.7
78708;SHT31;68037;51.978;5.650;2023-05-16T14:18:22;17.2;44.8
78708;SHT31;68037;51.978;5.650;2023-05-16T14:20:51;17.2;44.1
78708;SHT31;68037;51.978;5.650;2023-05-16T14:23:22;17.2;44.0
78708;SHT31;68037;51.978;5.650;2023-05-16T14:25:52;17.2;43.5
78708;SHT31;68037;51.978;5.650;2023-05-16T14:28:22;17.2;43.2
78708;SHT31;68037;51.978;5.650;2023-05-16T14:30:51;17.2;43.3
78708;SHT31;68037;51.978;5.650;2023-05-16T14:33:21;17.2;43.9
78708;SHT31;68037;51.978;5.650;2023-05-16T14:35:51;17.2;44.0
78708;SHT31;68037;51.978;5.650;2023-05-16T14:38:20;17.2;43.2
78708;SHT31;68037;51.978;5.650;2023-05-16T14:40:50;17.2;43.4
78708;SHT31;68037;51.978;5.650;2023-05-16T14:43:20;17.2;43.3
78708;SHT31;68037;51.978;5.650;2023-05-16T14:45:50;17.2;43.2
78708;SHT31;68037;51.978;5.650;2023-05-16T14:48:19;17.2;44.0
78708;SHT31;68037;51.978;5.650;2023-05-16T14:50:48;17.2;43.9
78708;SHT31;68037;51.978;5.650;2023-05-16T14:53:19;17.2;44.3
78708;SHT31;68037;51.978;5.650;2023-05-16T14:55:49;17.2;44.1
78708;SHT31;68037;51.978;5.650;2023-05-16T14:58:19;17.2;43.9
78708;SHT31;68037;51.978;5.650;2023-05-16T15:00:49;17.2;43.6
78708;SHT31;68037;51.978;5.650;2023-05-16T15:03:18;17.2;43.1
78708;SHT31;68037;51.978;5.650;2023-05-16T15:05:48;17.2;43.5
78708;SHT31;68037;51.978;5.650;2023-05-16T15:08:19;17.2;43.2
78708;SHT31;68037;51.978;5.650;2023-05-16T15:10:50;17.2;42.4
78708;SHT31;68037;51.978;5.650;2023-05-16T15:13:19;17.2;42.6
78708;SHT31;68037;51.978;5.650;2023-05-16T15:15:49;17.2;43.1
78708;SHT31;68037;51.978;5.650;2023-05-16T15:18:19;17.2;42.7
78708;SHT31;68037;51.978;5.650;2023-05-16T15:20:50;17.2;43.2
78708;SHT31;68037;51.978;5.650;2023-05-16T15:23:20;17.2;43.2
78708;SHT31;68037;51.978;5.650;2023-05-16T15:25:49;17.2;43.7
78708;SHT31;68037;51.978;5.650;2023-05-16T15:28:20;17.2;44.0
78708;SHT31;68037;51.978;5.650;2023-05-16T15:30:50;17.2;43.9
78708;SHT31;68037;51.978;5.650;2023-05-16T15:33:19;17.2;43.7
78708;SHT31;68037;51.978;5.650;2023-05-16T15:35:49;17.2;42.8
78708;SHT31;68037;51.978;5.650;2023-05-16T15:38:19;17.2;42.7
78708;SHT31;68037;51.978;5.650;2023-05-16T15:40:49;17.2;42.7
78708;SHT31;68037;51.978;5.650;2023-05-16T15:43:18;17.2;42.1
78708;SHT31;68037;51.978;5.650;2023-05-16T15:45:48;17.2;41.8
78708;SHT31;68037;51.978;5.650;2023-05-16T15:48:17;17.2;42.1
78708;SHT31;68037;51.978;5.650;2023-05-16T15:50:47;17.2;42.5
78708;SHT31;68037;51.978;5.650;2023-05-16T15:53:17;17.2;43.4
78708;SHT31;68037;51.978;5.650;2023-05-16T15:55:48;17.2;43.8
78708;SHT31;68037;51.978;5.650;2023-05-16T15:58:19;17.2;42.5
78708;SHT31;68037;51.978;5.650;2023-05-16T16:00:49;17.2;42.0
78708;SHT31;68037;51.978;5.650;2023-05-16T16:03:21;17.3;42.1
78708;SHT31;68037;51.978;5.650;2023-05-16T16:05:50;17.3;42.2
78708;SHT31;68037;51.978;5.650;2023-05-16T16:08:20;17.3;42.5
78708;SHT31;68037;51.978;5.650;2023-05-16T16:10:50;17.3;42.7
78708;SHT31;68037;51.978;5.650;2023-05-16T16:13:19;17.4;43.4
78708;SHT31;68037;51.978;5.650;2023-05-16T16:15:50;17.4;42.6
78708;SHT31;68037;51.978;5.650;2023-05-16T16:18:20;17.4;42.5
78708;SHT31;68037;51.978;5.650;2023-05-16T16:20:49;17.4;42.3
78708;SHT31;68037;51.978;5.650;2023-05-16T16:23:20;17.4;41.6
78708;SHT31;68037;51.978;5.650;2023-05-16T16:25:49;17.4;41.5
78708;SHT31;68037;51.978;5.650;2023-05-16T16:28:19;17.4;41.6